Time;durP1;ratioP1;P1;durP2;ratioP2;P2;SDS_P1;SDS_P2;PMS_P1;PMS_P2;Temp;Humidity;BMP_temperature;BMP_pressure;BME280_temperature;BME280_humidity;BME280_pressure;Samples;Min_cycle;Max_cycle;Signal;HPM_P1;HPM_P2
2022/08/15 00:00:16;;;;;;;6.50;3.95;;;;;;;16.00;77.93;95442.28;10328129;28;97294;-61
2022/08/15 00:05:31;;;;;;;7.10;4.35;;;;;;;15.92;78.18;95443.25;10333771;28;98391;-61
2022/08/15 00:10:44;;;;;;;9.85;5.18;;;;;;;15.95;77.73;95442.88;10330556;28;96876;-62
2022/08/15 00:16:07;;;;;;;7.65;6.40;;;;;;;15.96;78.15;95438.41;10333788;28;97410;-61
2022/08/15 00:21:11;;;;;;;9.85;8.02;;;;;;;15.96;78.11;95435.75;10321861;28;98009;-61
2022/08/15 00:26:15;;;;;;;10.18;6.55;;;;;;;15.96;77.85;95438.41;10332721;28;98479;-62
2022/08/15 00:31:38;;;;;;;8.97;6.23;;;;;;;15.86;78.29;95431.72;10331258;28;97797;-61
2022/08/15 00:36:46;;;;;;;9.63;6.95;;;;;;;15.79;78.46;95423.00;10327003;28;96870;-62
2022/08/15 00:42:01;;;;;;;8.52;5.68;;;;;;;15.71;77.67;95423.16;10332671;28;98763;-61
2022/08/15 00:47:08;;;;;;;12.00;6.47;;;;;;;15.42;78.58;95417.19;10329165;28;97076;-61
2022/08/15 00:52:15;;;;;;;12.00;7.28;;;;;;;15.45;79.42;95427.31;10328388;28;96976;-60
2022/08/15 00:57:33;;;;;;;9.63;5.00;;;;;;;15.32;78.62;95432.53;10324491;28;97586;-62
2022/08/15 01:03:02;;;;;;;10.02;6.50;;;;;;;15.26;78.82;95428.06;10323657;28;97882;-61
2022/08/15 01:08:05;;;;;;;10.90;7.53;;;;;;;15.26;79.01;95423.63;10327540;28;96932;-62
2022/08/15 01:13:09;;;;;;;15.82;8.55;;;;;;;15.23;78.92;95431.09;10323301;28;98451;-61
2022/08/15 01:18:32;;;;;;;17.15;9.68;;;;;;;15.25;79.57;95436.97;10324777;28;98090;-61
2022/08/15 01:23:47;;;;;;;8.48;5.45;;;;;;;15.12;79.00;95437.72;10325027;28;97780;-62
2022/08/15 01:28:59;;;;;;;7.22;5.47;;;;;;;14.98;79.54;95431.59;10315088;28;97085;-61
2022/08/15 01:34:03;;;;;;;9.70;5.40;;;;;;;14.96;79.21;95430.16;10325726;28;96868;-61
2022/08/15 01:39:20;;;;;;;11.40;6.53;;;;;;;14.93;79.12;95424.28;10337570;28;97194;-61
2022/08/15 01:44:31;;;;;;;8.63;6.50;;;;;;;14.91;79.22;95423.66;10329110;28;96899;-61
2022/08/15 01:49:46;;;;;;;8.98;5.45;;;;;;;14.86;79.40;95425.25;10321760;28;96850;-61
2022/08/15 01:55:02;;;;;;;10.45;6.68;;;;;;;14.75;80.03;95427.44;10330622;28;96720;-63
2022/08/15 02:00:12;;;;;;;12.32;7.03;;;;;;;14.75;80.44;95422.16;10326055;28;98936;-61
2022/08/15 02:05:20;;;;;;;9.98;6.53;;;;;;;14.67;80.91;95419.69;10332657;28;96806;-61
2022/08/15 02:10:23;;;;;;;10.05;5.95;;;;;;;14.63;80.03;95420.28;10326732;28;98534;-61
2022/08/15 02:15:31;;;;;;;11.13;5.95;;;;;;;14.64;80.34;95414.81;10327433;28;98323;-62
2022/08/15 02:20:34;;;;;;;8.10;5.38;;;;;;;14.67;79.94;95422.31;10320358;28;98215;-61
2022/08/15 02:25:41;;;;;;;8.23;5.63;;;;;;;14.73;79.46;95413.69;10338568;28;97818;-63
2022/08/15 02:30:48;;;;;;;9.38;5.30;;;;;;;14.66;79.60;95418.09;10326809;28;97095;-62
2022/08/15 02:35:53;;;;;;;10.07;5.20;;;;;;;14.62;79.17;95421.28;10323961;28;97191;-62
2022/08/15 02:40:57;;;;;;;10.10;6.45;;;;;;;14.53;79.98;95418.00;10337393;28;97742;-64
2022/08/15 02:46:01;;;;;;;9.63;6.40;;;;;;;14.54;79.91;95420.44;10335543;28;98332;-61
2022/08/15 02:51:25;;;;;;;11.23;6.68;;;;;;;14.46;79.70;95417.94;10324876;28;98284;-62
2022/08/15 02:56:29;;;;;;;10.18;7.10;;;;;;;14.50;80.11;95413.13;10329970;28;96862;-61
2022/08/15 03:01:37;;;;;;;11.55;7.00;;;;;;;14.50;79.74;95418.38;10328444;28;98935;-62
2022/08/15 03:06:45;;;;;;;11.25;6.65;;;;;;;14.43;79.56;95413.06;10332567;28;96847;-62
2022/08/15 03:11:50;;;;;;;11.82;6.97;;;;;;;14.41;80.29;95419.53;10339068;28;96825;-61
2022/08/15 03:17:02;;;;;;;14.07;8.20;;;;;;;14.39;80.23;95418.91;10336295;28;98636;-61
2022/08/15 03:22:10;;;;;;;14.52;7.70;;;;;;;14.29;80.15;95411.31;10329506;28;97789;-62
2022/08/15 03:27:33;;;;;;;9.35;7.32;;;;;;;14.26;80.37;95406.44;10328100;28;97170;-61
2022/08/15 03:32:44;;;;;;;15.10;8.00;;;;;;;14.28;80.58;95402.66;10327747;28;97045;-61
2022/08/15 03:37:47;;;;;;;15.25;8.70;;;;;;;14.32;80.88;95395.22;10331703;28;97001;-62
2022/08/15 03:43:05;;;;;;;9.60;7.32;;;;;;;14.16;80.53;95409.44;10328466;28;96832;-61
2022/08/15 03:48:16;;;;;;;11.60;6.70;;;;;;;14.08;80.43;95407.72;10328119;28;97184;-62
2022/08/15 03:53:24;;;;;;;10.05;6.28;;;;;;;14.10;80.85;95397.84;10331364;28;98308;-61
2022/08/15 03:58:31;;;;;;;9.40;6.43;;;;;;;14.10;80.09;95408.34;10321913;28;99235;-60
2022/08/15 04:03:40;;;;;;;11.60;6.55;;;;;;;14.16;80.22;95397.09;10322948;28;96870;-61
2022/08/15 04:08:44;;;;;;;10.10;5.93;;;;;;;14.11;79.85;95399.47;10326996;28;96962;-61
2022/08/15 04:14:07;;;;;;;9.52;5.82;;;;;;;14.13;80.41;95407.16;10335428;28;97706;-61
2022/08/15 04:19:32;;;;;;;12.50;6.80;;;;;;;14.17;79.99;95405.78;10324840;28;96797;-60
2022/08/15 04:24:49;;;;;;;11.70;6.88;;;;;;;13.96;80.82;95410.06;10327637;28;98061;-61
2022/08/15 04:29:52;;;;;;;11.18;6.70;;;;;;;13.95;81.05;95405.81;10326217;28;96943;-61
2022/08/15 04:35:01;;;;;;;10.27;6.78;;;;;;;13.98;81.31;95399.38;10329235;28;97126;-62
2022/08/15 04:40:05;;;;;;;10.73;6.73;;;;;;;14.04;80.60;95406.50;10321102;28;96821;-61
2022/08/15 04:45:30;;;;;;;10.50;6.25;;;;;;;14.13;80.77;95401.91;10332587;28;99580;-61
2022/08/15 04:50:36;;;;;;;13.27;6.03;;;;;;;14.19;80.84;95395.88;10326858;28;96797;-61
2022/08/15 04:55:43;;;;;;;9.23;6.72;;;;;;;14.26;80.67;95402.03;10326072;28;97028;-62
2022/08/15 05:00:54;;;;;;;14.23;9.15;;;;;;;14.43;81.84;95391.25;10315030;28;99109;-61
2022/08/15 05:06:01;;;;;;;36.28;29.40;;;;;;;14.62;81.51;95382.66;10334657;28;99019;-61
2022/08/15 05:11:24;;;;;;;10.68;8.02;;;;;;;14.80;80.71;95381.31;10320380;28;96898;-62
2022/08/15 05:16:47;;;;;;;11.27;6.68;;;;;;;14.96;80.83;95383.66;10322653;28;98280;-60
2022/08/15 05:21:53;;;;;;;8.93;6.63;;;;;;;15.08;80.43;95374.19;10325263;28;98796;-64
2022/08/15 05:26:57;;;;;;;9.27;6.87;;;;;;;15.29;80.38;95373.22;10319046;28;97139;-61
2022/08/15 05:32:07;;;;;;;8.40;6.38;;;;;;;15.50;80.38;95366.19;10320103;28;98830;-62
2022/08/15 05:37:17;;;;;;;7.68;5.82;;;;;;;15.63;79.67;95370.69;10327499;28;96909;-60
2022/08/15 05:42:35;;;;;;;8.07;6.45;;;;;;;15.79;79.50;95370.31;10322141;28;98339;-61
2022/08/15 05:47:54;;;;;;;9.70;6.32;;;;;;;15.95;79.37;95384.13;10315673;28;99106;-60
2022/08/15 05:53:06;;;;;;;9.00;7.05;;;;;;;16.09;79.39;95375.19;10331377;28;97357;-60
2022/08/15 05:58:23;;;;;;;10.75;8.77;;;;;;;16.20;79.33;95385.09;10340623;28;97977;-60
2022/08/15 06:03:47;;;;;;;9.43;7.57;;;;;;;16.27;79.54;95389.56;10329694;28;98066;-61
2022/08/15 06:08:56;;;;;;;11.82;8.05;;;;;;;16.34;79.99;95388.53;10336303;28;98651;-61
2022/08/15 06:14:12;;;;;;;10.85;8.77;;;;;;;16.47;79.45;95394.81;10338496;28;96771;-60
2022/08/15 06:19:24;;;;;;;13.25;10.35;;;;;;;16.67;79.08;95387.66;10334952;28;98781;-61
2022/08/15 06:24:52;;;;;;;14.55;11.10;;;;;;;16.88;79.16;95388.47;10335207;28;98392;-61
2022/08/15 06:30:05;;;;;;;12.65;10.23;;;;;;;17.17;78.65;95387.94;10336451;28;97084;-61
2022/08/15 06:35:23;;;;;;;13.57;10.93;;;;;;;17.44;78.38;95389.63;10332207;28;98749;-60
2022/08/15 06:40:37;;;;;;;15.05;10.82;;;;;;;17.64;78.07;95392.19;10332007;28;98339;-61
2022/08/15 06:45:44;;;;;;;17.42;12.20;;;;;;;17.85;77.48;95388.41;10333800;28;97159;-60
2022/08/15 06:50:56;;;;;;;14.48;11.70;;;;;;;18.06;77.22;95385.41;10332567;28;98329;-62
2022/08/15 06:56:05;;;;;;;15.27;11.88;;;;;;;18.20;76.98;95385.28;10334492;28;96851;-61
2022/08/15 07:01:23;;;;;;;15.52;12.30;;;;;;;18.28;76.54;95388.47;10326448;28;97600;-61
2022/08/15 07:06:55;;;;;;;13.85;11.13;;;;;;;18.22;76.69;95388.53;10332055;28;97081;-61
2022/08/15 07:12:10;;;;;;;14.35;12.85;;;;;;;18.25;76.67;95390.75;10335497;28;97614;-60
2022/08/15 07:17:20;;;;;;;15.05;12.68;;;;;;;18.45;75.94;95396.66;10338269;28;96775;-61
2022/08/15 07:22:35;;;;;;;13.88;12.32;;;;;;;18.59;75.40;95389.41;10338599;28;96786;-60
2022/08/15 07:27:40;;;;;;;13.27;11.88;;;;;;;18.74;75.59;95391.72;10338036;28;96998;-62
2022/08/15 07:32:51;;;;;;;14.50;11.02;;;;;;;18.77;75.09;95396.56;10338276;28;98072;-61
2022/08/15 07:37:58;;;;;;;12.38;9.90;;;;;;;18.87;74.37;95381.00;10338194;28;96951;-61
2022/08/15 07:43:30;;;;;;;14.02;12.13;;;;;;;19.08;75.15;95378.94;10334264;28;98607;-60
2022/08/15 07:48:38;;;;;;;11.82;10.27;;;;;;;19.28;74.89;95377.88;10337637;28;97082;-60
2022/08/15 07:53:53;;;;;;;12.52;10.40;;;;;;;19.40;74.52;95371.63;10336794;28;98253;-61
2022/08/15 07:59:12;;;;;;;12.57;10.00;;;;;;;19.40;74.10;95368.16;10337640;28;97048;-61
2022/08/15 08:04:30;;;;;;;10.52;9.52;;;;;;;19.52;74.20;95365.53;10338158;28;96722;-61
2022/08/15 08:09:45;;;;;;;9.80;8.90;;;;;;;19.81;72.85;95363.91;10337335;28;96747;-60
2022/08/15 08:15:02;;;;;;;8.85;7.93;;;;;;;19.99;71.89;95361.22;10336423;28;97028;-61
2022/08/15 08:20:20;;;;;;;9.25;8.23;;;;;;;20.04;72.53;95363.16;10335671;28;96993;-60
2022/08/15 08:25:28;;;;;;;8.88;7.90;;;;;;;20.18;70.73;95367.25;10324958;28;97203;-61
2022/08/15 08:31:02;;;;;;;8.52;7.65;;;;;;;20.29;70.95;95373.56;10338009;28;98707;-61
2022/08/15 08:36:12;;;;;;;8.20;7.32;;;;;;;20.45;69.80;95371.28;10336607;28;97047;-60
2022/08/15 08:41:46;;;;;;;8.63;7.72;;;;;;;20.57;70.03;95372.06;10331485;28;96747;-61
2022/08/15 08:47:17;;;;;;;8.43;7.10;;;;;;;20.73;69.02;95376.66;10335979;28;96864;-60
2022/08/15 08:52:27;;;;;;;7.63;6.97;;;;;;;20.91;68.58;95377.59;10336326;28;96896;-61
2022/08/15 08:57:36;;;;;;;9.35;6.63;;;;;;;21.04;67.78;95387.97;10336122;28;97821;-61
2022/08/15 09:02:46;;;;;;;6.82;6.13;;;;;;;21.04;67.17;95382.66;10336521;28;96905;-61
2022/08/15 09:07:58;;;;;;;7.40;6.13;;;;;;;21.11;66.95;95378.00;10335494;28;98717;-61
2022/08/15 09:18:32;;;;;;;6.82;5.20;;;;;;;21.15;66.19;95380.22;10335470;28;97062;-61
2022/08/15 09:23:51;;;;;;;6.55;5.00;;;;;;;21.37;66.17;95375.88;10331016;28;96976;-61
2022/08/15 09:29:07;;;;;;;5.93;5.18;;;;;;;21.56;65.20;95370.38;10339210;28;97171;-61
2022/08/15 09:34:38;;;;;;;5.97;4.75;;;;;;;21.63;64.29;95368.41;10342573;28;96822;-61
2022/08/15 09:40:10;;;;;;;4.85;4.40;;;;;;;21.88;63.39;95366.19;10342724;28;96774;-60
2022/08/15 09:45:47;;;;;;;5.50;5.00;;;;;;;21.70;63.57;95366.41;10349582;28;96799;-61
2022/08/15 09:51:04;;;;;;;5.13;4.63;;;;;;;21.75;63.95;95365.69;10339548;28;97711;-61
2022/08/15 09:56:12;;;;;;;6.35;4.10;;;;;;;21.93;63.23;95362.78;10330444;28;96777;-61
2022/08/15 10:01:25;;;;;;;4.32;3.75;;;;;;;22.17;62.37;95368.78;10340846;28;97772;-61
2022/08/15 10:06:51;;;;;;;7.10;4.30;;;;;;;22.33;61.56;95363.69;10341780;28;98720;-61
2022/08/15 10:12:06;;;;;;;5.50;4.70;;;;;;;22.51;60.51;95368.78;10338812;28;97407;-61
2022/08/15 10:17:27;;;;;;;4.82;3.92;;;;;;;22.31;60.57;95376.44;10341111;28;96726;-60
2022/08/15 10:22:51;;;;;;;5.90;4.05;;;;;;;22.35;59.80;95374.88;10341230;28;97096;-62
2022/08/15 10:27:58;;;;;;;5.25;3.35;;;;;;;22.57;59.22;95362.47;10341611;28;97615;-60
2022/08/15 10:33:21;;;;;;;5.10;4.25;;;;;;;22.60;58.72;95362.00;10341265;28;96817;-61
2022/08/15 10:38:29;;;;;;;4.60;4.20;;;;;;;22.54;59.32;95362.94;10340830;28;96777;-60
2022/08/15 10:43:55;;;;;;;5.15;4.13;;;;;;;22.63;58.71;95360.72;10338239;28;97197;-61
2022/08/15 10:49:13;;;;;;;4.55;4.15;;;;;;;22.67;58.58;95353.03;10340406;28;96720;-60
2022/08/15 10:54:52;;;;;;;5.25;3.90;;;;;;;22.66;58.61;95354.06;10339007;28;96878;-60
2022/08/15 10:59:56;;;;;;;6.07;4.30;;;;;;;22.68;58.16;95349.31;10331613;28;98067;-61
2022/08/15 11:05:03;;;;;;;4.28;3.88;;;;;;;22.44;58.63;95344.19;10339928;28;96769;-61
2022/08/15 11:10:13;;;;;;;4.68;4.20;;;;;;;22.44;58.03;95339.66;10338959;28;97211;-61
2022/08/15 11:15:27;;;;;;;6.43;4.30;;;;;;;22.56;57.96;95336.91;10339391;28;96848;-61
2022/08/15 11:20:40;;;;;;;5.78;4.28;;;;;;;22.84;56.86;95331.66;10328235;28;96877;-61
2022/08/15 11:25:55;;;;;;;5.75;4.22;;;;;;;22.99;56.04;95346.00;10334376;28;96906;-62
2022/08/15 11:31:04;;;;;;;6.40;3.80;;;;;;;23.14;55.88;95347.22;10335252;28;96962;-61
2022/08/15 11:36:11;;;;;;;5.90;3.90;;;;;;;23.27;54.87;95341.56;10333666;28;97012;-61
2022/08/15 11:41:27;;;;;;;4.72;3.88;;;;;;;23.49;54.47;95352.16;10333623;28;96992;-61
2022/08/15 11:46:29;;;;;;;4.00;3.60;;;;;;;23.47;54.67;95337.50;10331955;28;97851;-60
2022/08/15 11:51:37;;;;;;;6.13;3.87;;;;;;;23.54;53.79;95330.09;10332866;28;96700;-61
2022/08/15 11:57:03;;;;;;;7.72;4.10;;;;;;;23.68;53.55;95336.63;10333617;28;97211;-62
2022/08/15 12:02:30;;;;;;;5.32;3.60;;;;;;;23.76;52.63;95332.72;10333493;28;97131;-61
2022/08/15 12:07:43;;;;;;;6.78;3.50;;;;;;;23.91;53.25;95332.03;10327556;28;98574;-61
2022/08/15 12:12:49;;;;;;;6.32;4.25;;;;;;;23.92;53.53;95345.09;10332793;28;96806;-61
2022/08/15 12:18:07;;;;;;;6.30;3.75;;;;;;;23.84;52.59;95348.22;10332313;28;97024;-60
2022/08/15 12:23:35;;;;;;;4.27;3.57;;;;;;;23.71;53.54;95349.47;10333272;28;96986;-60
2022/08/15 12:28:51;;;;;;;4.83;3.40;;;;;;;23.42;53.96;95351.56;10320840;28;96923;-61
2022/08/15 12:34:09;;;;;;;5.30;3.47;;;;;;;23.21;53.67;95353.16;10331941;28;96841;-61
2022/08/15 12:39:31;;;;;;;5.55;4.03;;;;;;;23.17;54.39;95362.72;10331227;28;96769;-60
2022/08/15 12:44:39;;;;;;;8.27;4.55;;;;;;;23.34;53.17;95360.81;10330995;28;96794;-62
2022/08/15 12:49:50;;;;;;;5.50;3.40;;;;;;;23.81;51.95;95358.59;10324843;28;96817;-60
2022/08/15 12:54:53;;;;;;;4.05;2.92;;;;;;;24.23;51.62;95361.41;10331078;28;96793;-60
2022/08/15 13:00:01;;;;;;;6.45;3.00;;;;;;;24.68;50.47;95356.63;10331213;28;96883;-61
2022/08/15 13:05:08;;;;;;;5.80;3.30;;;;;;;24.85;50.23;95361.81;10330744;28;96789;-60
2022/08/15 13:10:19;;;;;;;6.60;3.45;;;;;;;24.91;50.24;95365.31;10331363;28;96760;-61
2022/08/15 13:15:44;;;;;;;5.40;3.50;;;;;;;24.94;50.30;95359.44;10331830;28;96819;-60
2022/08/15 13:26:11;;;;;;;3.72;3.00;;;;;;;25.18;48.90;95349.94;10330686;28;96820;-61
2022/08/15 13:31:34;;;;;;;3.53;3.22;;;;;;;25.26;48.67;95345.94;10329218;28;97083;-61
2022/08/15 13:36:38;;;;;;;3.97;3.28;;;;;;;25.66;48.58;95344.47;10329323;28;97095;-61
2022/08/15 13:41:56;;;;;;;4.05;3.28;;;;;;;26.16;46.79;95326.84;10329848;28;96843;-60
2022/08/15 13:47:24;;;;;;;3.70;3.00;;;;;;;26.59;45.73;95328.41;10330380;28;96716;-61
2022/08/15 13:52:48;;;;;;;5.05;3.08;;;;;;;26.58;43.85;95332.97;10329042;28;97275;-61
2022/08/15 13:57:53;;;;;;;3.58;2.70;;;;;;;26.36;43.39;95320.72;10329981;28;97967;-61
2022/08/15 14:03:19;;;;;;;5.83;2.90;;;;;;;26.49;42.70;95321.22;10326782;28;96918;-61
2022/08/15 14:08:25;;;;;;;7.40;2.95;;;;;;;26.54;41.77;95326.56;10330673;28;96781;-61
2022/08/15 14:13:48;;;;;;;5.60;3.20;;;;;;;26.46;41.54;95329.78;10331767;28;97153;-61
2022/08/15 14:18:56;;;;;;;3.58;2.83;;;;;;;26.61;42.97;95324.41;10336836;28;96857;-61
2022/08/15 14:24:04;;;;;;;4.93;3.20;;;;;;;26.62;41.52;95328.66;10331654;28;96832;-63
2022/08/15 14:29:32;;;;;;;9.25;3.10;;;;;;;26.44;42.44;95315.88;10329614;28;96767;-61
2022/08/15 14:34:57;;;;;;;5.90;2.97;;;;;;;26.38;41.34;95312.41;10336887;28;96776;-61
2022/08/15 14:40:00;;;;;;;5.45;2.88;;;;;;;26.82;40.62;95308.28;10335446;28;96932;-61
2022/08/15 14:45:04;;;;;;;4.00;3.10;;;;;;;27.00;38.73;95305.00;10335168;28;97446;-61
2022/08/15 14:50:09;;;;;;;3.88;2.45;;;;;;;27.66;37.70;95293.16;10334904;28;97005;-61
2022/08/15 14:55:33;;;;;;;2.92;2.30;;;;;;;28.92;34.86;95305.97;10335178;28;96862;-61
2022/08/15 15:00:37;;;;;;;2.63;2.28;;;;;;;29.95;33.50;95297.28;10335954;28;96999;-61
2022/08/15 15:05:41;;;;;;;3.30;2.47;;;;;;;30.61;31.51;95299.97;10335212;28;96900;-61
2022/08/15 15:11:04;;;;;;;3.28;2.10;;;;;;;30.99;31.18;95302.50;10336001;28;96771;-61
2022/08/15 15:16:08;;;;;;;2.83;2.15;;;;;;;30.59;31.57;95304.84;10333219;28;98671;-62
2022/08/15 15:21:33;;;;;;;3.28;2.20;;;;;;;31.37;31.01;95292.28;10334845;28;96699;-62
2022/08/15 15:26:36;;;;;;;2.55;2.17;;;;;;;31.63;31.20;95293.63;10334056;28;98382;-61
2022/08/15 15:31:58;;;;;;;2.42;1.95;;;;;;;31.44;29.62;95288.38;10333926;28;98676;-61
2022/08/15 15:37:06;;;;;;;2.13;1.80;;;;;;;31.56;30.27;95286.72;10334100;28;96949;-62
2022/08/15 15:42:10;;;;;;;2.70;2.22;;;;;;;32.06;29.47;95285.84;10333150;28;97340;-61
2022/08/15 15:47:19;;;;;;;2.90;2.00;;;;;;;33.25;28.40;95288.91;10333023;28;96737;-62
2022/08/15 15:52:30;;;;;;;2.33;2.05;;;;;;;33.18;27.38;95296.72;10328700;28;98159;-62
2022/08/15 15:57:35;;;;;;;3.80;1.90;;;;;;;33.35;27.63;95283.19;10329876;28;96861;-62
2022/08/15 16:03:01;;;;;;;2.95;1.48;;;;;;;32.96;26.57;95289.47;10332839;28;97176;-61
2022/08/15 16:08:10;;;;;;;3.28;1.83;;;;;;;32.53;27.08;95280.88;10332146;28;97542;-61
2022/08/15 16:13:38;;;;;;;5.20;2.10;;;;;;;32.85;26.12;95270.81;10326988;28;97324;-61
2022/08/15 16:18:48;;;;;;;2.95;1.67;;;;;;;33.62;25.58;95278.63;10321948;28;97533;-61
2022/08/15 16:23:59;;;;;;;3.55;1.70;;;;;;;33.89;25.36;95277.50;10332122;28;97051;-61
2022/08/15 16:29:07;;;;;;;3.95;2.47;;;;;;;34.21;25.38;95288.94;10328392;28;97198;-61
2022/08/15 16:34:17;;;;;;;1.92;1.73;;;;;;;34.53;25.02;95286.81;10323921;28;97648;-61
2022/08/15 16:39:36;;;;;;;2.67;1.80;;;;;;;34.68;24.04;95290.91;10326411;28;96876;-61
2022/08/15 16:44:52;;;;;;;2.08;1.70;;;;;;;34.88;24.79;95282.03;10326527;28;98308;-61
2022/08/15 16:50:15;;;;;;;2.80;1.63;;;;;;;34.34;23.90;95276.31;10322116;28;97142;-61
2022/08/15 16:55:29;;;;;;;2.75;1.70;;;;;;;34.61;24.31;95277.03;10323592;28;98196;-62
2022/08/15 17:00:38;;;;;;;2.25;1.40;;;;;;;34.28;24.00;95275.72;10312641;28;97644;-62
2022/08/15 17:05:53;;;;;;;5.32;2.15;;;;;;;33.31;25.53;95279.53;10328612;28;97914;-61
2022/08/15 17:11:04;;;;;;;3.35;2.08;;;;;;;32.64;26.20;95277.91;10325081;28;97465;-62
2022/08/15 17:16:18;;;;;;;3.55;1.77;;;;;;;31.01;27.06;95286.81;10320632;28;97506;-61
2022/08/15 17:21:35;;;;;;;2.70;1.88;;;;;;;30.84;28.12;95290.94;10325817;28;96810;-61
2022/08/15 17:26:53;;;;;;;2.75;1.90;;;;;;;31.25;27.03;95293.88;10324157;28;97734;-62
2022/08/15 17:32:21;;;;;;;2.63;1.88;;;;;;;31.66;26.83;95290.28;10326124;28;98556;-62
2022/08/15 17:37:32;;;;;;;2.40;1.70;;;;;;;31.41;27.76;95292.47;10326867;28;98952;-61
2022/08/15 17:42:49;;;;;;;2.85;2.10;;;;;;;30.95;28.09;95301.50;10325268;28;99469;-61
2022/08/15 17:47:56;;;;;;;3.88;2.10;;;;;;;29.83;28.97;95307.72;10322632;28;98631;-63
2022/08/15 17:53:10;;;;;;;4.22;2.10;;;;;;;28.82;30.10;95306.88;10328809;28;99132;-61
2022/08/15 17:58:23;;;;;;;4.07;2.58;;;;;;;27.97;31.47;95308.19;10326314;28;99394;-61
2022/08/15 18:03:31;;;;;;;6.47;3.45;;;;;;;27.37;32.47;95322.53;10333084;28;98319;-60
2022/08/15 18:08:38;;;;;;;2.30;2.10;;;;;;;26.94;32.80;95324.88;10334071;28;97229;-61
2022/08/15 18:13:57;;;;;;;3.22;2.10;;;;;;;26.36;32.67;95330.59;10337541;28;98143;-62
2022/08/15 18:19:21;;;;;;;2.63;2.30;;;;;;;25.47;34.77;95330.75;10328665;28;96912;-64
2022/08/15 18:24:48;;;;;;;2.95;2.22;;;;;;;24.79;35.79;95336.13;10330129;28;97951;-62
2022/08/15 18:30:05;;;;;;;7.18;4.18;;;;;;;24.46;36.40;95341.53;10326771;28;98582;-62
2022/08/15 18:35:26;;;;;;;6.82;5.07;;;;;;;24.24;36.72;95346.19;10330301;28;97486;-62
2022/08/15 18:46:07;;;;;;;4.95;4.05;;;;;;;23.83;38.00;95354.63;10331937;28;99353;-61
2022/08/15 18:51:15;;;;;;;4.95;2.70;;;;;;;23.51;38.74;95366.03;10328790;28;98819;-61
2022/08/15 18:56:24;;;;;;;2.88;2.30;;;;;;;23.18;39.63;95361.66;10322456;28;98833;-62
2022/08/15 19:01:31;;;;;;;2.70;2.30;;;;;;;22.87;40.54;95369.25;10320307;28;97976;-61
2022/08/15 19:06:49;;;;;;;4.93;3.50;;;;;;;22.50;41.85;95379.69;10325232;28;97685;-62
2022/08/15 19:11:58;;;;;;;19.48;14.13;;;;;;;22.23;42.35;95382.94;10324787;28;98467;-61
2022/08/15 19:17:08;;;;;;;4.20;2.50;;;;;;;22.10;42.77;95384.09;10328742;28;96912;-63
2022/08/15 19:22:20;;;;;;;4.55;2.75;;;;;;;21.87;42.93;95383.19;10322926;28;98176;-61
2022/08/15 19:27:39;;;;;;;4.05;2.67;;;;;;;21.68;43.46;95387.91;10330828;28;97264;-61
2022/08/15 19:32:57;;;;;;;6.20;3.00;;;;;;;21.61;43.40;95392.53;10325191;28;99313;-63
2022/08/15 19:38:15;;;;;;;3.60;2.70;;;;;;;21.54;43.54;95396.38;10326260;28;96826;-61
2022/08/15 19:43:30;;;;;;;8.18;6.38;;;;;;;21.55;44.16;95401.44;10339204;28;97903;-61
2022/08/15 19:48:45;;;;;;;6.95;3.92;;;;;;;21.38;45.24;95398.75;10331458;28;96788;-61
2022/08/15 19:54:00;;;;;;;6.70;3.85;;;;;;;21.37;45.09;95407.75;10329664;28;96937;-61
2022/08/15 19:59:33;;;;;;;4.38;3.28;;;;;;;21.36;45.52;95411.44;10332078;28;96776;-61
2022/08/15 20:04:51;;;;;;;4.53;3.22;;;;;;;21.25;45.98;95410.44;10334501;28;96903;-61
2022/08/15 20:10:13;;;;;;;4.37;3.03;;;;;;;20.85;46.51;95411.19;10324317;28;99534;-62
2022/08/15 20:15:29;;;;;;;4.75;3.47;;;;;;;20.69;46.54;95410.03;10324807;28;96976;-62
2022/08/15 20:20:38;;;;;;;4.80;2.92;;;;;;;20.49;47.68;95420.19;10328291;28;96888;-61
2022/08/15 20:25:51;;;;;;;5.70;3.63;;;;;;;20.33;47.47;95419.81;10330063;28;97704;-61
2022/08/15 20:31:01;;;;;;;4.25;3.03;;;;;;;20.33;47.61;95426.97;10323076;28;98712;-61
2022/08/15 20:36:08;;;;;;;4.07;3.00;;;;;;;20.03;49.09;95424.41;10329021;28;99373;-62
2022/08/15 20:41:14;;;;;;;3.83;3.33;;;;;;;19.78;49.72;95425.31;10320838;28;98891;-62
2022/08/15 20:46:26;;;;;;;5.93;3.45;;;;;;;19.68;49.19;95432.97;10324966;28;97101;-61
2022/08/15 20:51:36;;;;;;;5.28;3.38;;;;;;;19.74;48.36;95438.19;10327539;28;97633;-60
2022/08/15 20:57:01;;;;;;;4.85;2.92;;;;;;;19.38;49.87;95444.38;10326243;28;99311;-61
2022/08/15 21:02:30;;;;;;;4.55;3.30;;;;;;;19.18;50.69;95456.00;10321937;28;97797;-61
2022/08/15 21:08:17;;;;;;;6.45;3.70;;;;;;;19.10;51.32;95464.22;10327760;28;97888;-61
2022/08/15 21:13:42;;;;;;;5.43;3.22;;;;;;;18.97;51.88;95461.75;10320577;28;97912;-60
2022/08/15 21:18:55;;;;;;;4.13;3.25;;;;;;;18.95;51.53;95461.13;10330528;28;96894;-62
2022/08/15 21:24:17;;;;;;;5.57;3.17;;;;;;;18.93;52.11;95458.69;10322102;28;98049;-61
2022/08/15 21:29:31;;;;;;;4.72;3.22;;;;;;;18.93;51.60;95460.56;10320982;28;98861;-61
2022/08/15 21:34:35;;;;;;;5.90;3.45;;;;;;;18.65;52.58;95451.22;10324930;28;97644;-61
2022/08/15 21:39:55;;;;;;;5.13;3.60;;;;;;;18.41;53.92;95453.66;10318573;28;98405;-61
2022/08/15 21:45:10;;;;;;;6.20;3.40;;;;;;;18.20;55.04;95470.69;10323944;28;96807;-60
2022/08/15 21:50:23;;;;;;;5.18;3.55;;;;;;;18.10;54.72;95460.59;10321733;28;96978;-60
2022/08/15 21:55:49;;;;;;;5.82;3.40;;;;;;;18.17;54.73;95459.72;10324861;28;96759;-61
2022/08/15 22:01:12;;;;;;;5.40;3.45;;;;;;;18.07;55.33;95470.81;10316576;28;97508;-62
2022/08/15 22:06:20;;;;;;;7.22;3.85;;;;;;;17.99;54.50;95465.75;10320505;28;96898;-60
2022/08/15 22:11:31;;;;;;;4.03;3.63;;;;;;;17.92;55.60;95469.25;10316051;28;97287;-61
2022/08/15 22:16:36;;;;;;;5.43;3.67;;;;;;;17.92;55.79;95479.81;10326423;28;97608;-61
2022/08/15 22:21:47;;;;;;;4.97;3.50;;;;;;;17.84;55.53;95472.16;10318746;28;96785;-61
2022/08/15 22:26:52;;;;;;;4.13;3.17;;;;;;;17.80;54.89;95483.31;10316823;28;96897;-60
2022/08/15 22:31:58;;;;;;;5.63;3.83;;;;;;;17.71;55.76;95488.03;10316162;28;97869;-60
2022/08/15 22:37:21;;;;;;;4.13;3.72;;;;;;;17.48;56.56;95496.47;10320406;28;97945;-61
2022/08/15 22:42:49;;;;;;;8.23;4.40;;;;;;;17.43;56.94;95498.94;10329153;28;98583;-60
2022/08/15 22:47:56;;;;;;;4.45;3.63;;;;;;;17.21;57.88;95498.38;10318495;28;96823;-60
2022/08/15 22:53:00;;;;;;;8.82;3.97;;;;;;;17.12;58.48;95513.63;10338042;28;97005;-60
2022/08/15 22:58:08;;;;;;;5.30;3.80;;;;;;;16.99;58.78;95498.63;10325670;28;99262;-61
2022/08/15 23:03:20;;;;;;;5.53;3.97;;;;;;;17.02;58.97;95500.84;10332822;28;96873;-61
2022/08/15 23:08:27;;;;;;;5.28;4.10;;;;;;;16.95;59.12;95503.53;10322849;28;97651;-60
2022/08/15 23:13:37;;;;;;;5.60;4.00;;;;;;;16.94;59.42;95509.81;10321576;28;97683;-60
2022/08/15 23:19:20;;;;;;;6.10;4.90;;;;;;;16.77;59.89;95505.97;10319641;28;97779;-60
2022/08/15 23:24:25;;;;;;;5.55;4.32;;;;;;;16.59;60.23;95501.28;10331942;28;96752;-60
2022/08/15 23:29:43;;;;;;;6.00;4.30;;;;;;;16.53;60.69;95496.81;10332217;28;96874;-60
2022/08/15 23:34:49;;;;;;;6.90;4.63;;;;;;;16.56;61.33;95501.69;10330121;28;97208;-60
2022/08/15 23:39:57;;;;;;;5.33;4.80;;;;;;;16.45;61.77;95484.66;10327918;28;96845;-60
2022/08/15 23:45:02;;;;;;;6.68;4.50;;;;;;;16.41;61.67;95486.06;10319434;28;99921;-61
2022/08/15 23:50:06;;;;;;;5.73;4.73;;;;;;;16.32;61.50;95490.72;10328191;28;97065;-61
2022/08/15 23:55:12;;;;;;;5.13;4.38;;;;;;;16.28;62.18;95488.72;10330783;28;97203;-60
